Terminal Aerodrome Forecast
Issued by NWS Atlanta, GA

Home | Current Version | Previous Version | Text Only | Print | Product List | Glossary On
Versions: 1 2 3 4 5 6 7 8 9 10 11 12 13 14 15 16 17
000
FTUS42 KFFC 011600 AAA
TAFMCN
TAF AMD
KMCN 011601Z 0116/0212 05006KT P6SM VCSH OVC008
     FM011700 06005KT P6SM VCSH BKN015
     FM011900 04004KT P6SM VCSH BKN035
     FM012300 05004KT P6SM VCSH SCT025 BKN080
     FM020800 07005KT P6SM OVC008=

USA.gov is the U.S. government's official web portal to all federal, state and local government web resources and services.